createdAt,value
2018-11-06T00:00:16.650Z,8.98
2018-11-06T00:02:46.324Z,9.02
2018-11-06T00:05:16.009Z,9.03
2018-11-06T00:07:45.128Z,9.01
2018-11-06T00:10:13.413Z,8.99
2018-11-06T00:12:41.947Z,9.01
2018-11-06T00:15:10.630Z,9.00
2018-11-06T00:17:39.312Z,9.00
2018-11-06T00:20:09.732Z,8.98
2018-11-06T00:22:38.308Z,8.97
2018-11-06T00:25:07.328Z,8.98
2018-11-06T00:27:35.650Z,8.97
2018-11-06T00:30:04.276Z,9.01
2018-11-06T00:32:32.560Z,9.04
2018-11-06T00:35:00.850Z,9.06
2018-11-06T00:37:29.229Z,9.06
2018-11-06T00:39:57.737Z,9.09
2018-11-06T00:42:26.113Z,9.13
2018-11-06T00:44:54.409Z,9.13
2018-11-06T00:47:22.684Z,9.13
2018-11-06T00:49:51.202Z,9.16
2018-11-06T00:52:19.619Z,9.14
2018-11-06T00:54:48.031Z,9.14
2018-11-06T00:57:16.353Z,9.15
2018-11-06T00:59:44.641Z,9.15
2018-11-06T01:02:13.120Z,9.16
2018-11-06T01:04:41.411Z,9.18
2018-11-06T01:07:09.699Z,9.16
2018-11-06T01:09:37.945Z,9.16
2018-11-06T01:12:06.291Z,9.14
2018-11-06T01:14:36.264Z,9.18
2018-11-06T01:17:04.547Z,9.20
2018-11-06T01:19:32.846Z,9.23
2018-11-06T01:22:01.108Z,9.26
2018-11-06T01:24:29.412Z,9.24
2018-11-06T01:26:57.722Z,9.20
2018-11-06T01:29:26.022Z,9.12
2018-11-06T01:31:54.326Z,9.06
2018-11-06T01:34:22.680Z,8.97
2018-11-06T01:36:50.983Z,8.88
2018-11-06T01:39:19.242Z,8.81
2018-11-06T01:41:47.516Z,8.73
2018-11-06T01:44:17.363Z,8.65
2018-11-06T01:46:46.329Z,8.60
2018-11-06T01:49:14.631Z,8.51
2018-11-06T01:51:42.927Z,8.43
2018-11-06T01:54:11.212Z,8.37
2018-11-06T01:56:39.524Z,8.30
2018-11-06T01:59:07.965Z,8.23
2018-11-06T02:01:36.240Z,8.18
2018-11-06T02:04:04.530Z,8.14
2018-11-06T02:06:32.799Z,8.10
2018-11-06T02:09:01.098Z,8.05
2018-11-06T02:11:29.802Z,7.98
2018-11-06T02:13:58.074Z,7.94
2018-11-06T02:16:26.352Z,7.91
2018-11-06T02:18:54.647Z,7.88
2018-11-06T02:21:22.932Z,7.84
2018-11-06T02:23:51.211Z,7.80
2018-11-06T02:26:19.490Z,7.78
2018-11-06T02:28:47.779Z,7.76
2018-11-06T02:31:16.072Z,7.73
2018-11-06T02:33:44.344Z,7.72
2018-11-06T02:36:12.647Z,7.75
2018-11-06T02:38:40.932Z,7.77
2018-11-06T02:41:09.207Z,7.76
2018-11-06T02:43:37.517Z,7.73
2018-11-06T02:46:06.221Z,7.67
2018-11-06T02:48:34.503Z,7.61
2018-11-06T02:51:02.788Z,7.57
2018-11-06T02:53:31.056Z,7.58
2018-11-06T02:55:59.477Z,7.61
2018-11-06T02:58:27.647Z,7.61
2018-11-06T03:00:55.949Z,7.56
2018-11-06T03:03:24.364Z,7.51
2018-11-06T03:05:52.666Z,7.52
2018-11-06T03:08:20.955Z,7.53
2018-11-06T03:10:49.230Z,7.49
2018-11-06T03:13:17.509Z,7.47
2018-11-06T03:15:45.799Z,7.48
2018-11-06T03:18:14.067Z,7.44
2018-11-06T03:20:42.355Z,7.37
2018-11-06T03:23:10.629Z,7.31
2018-11-06T03:25:38.919Z,7.32
2018-11-06T03:28:07.192Z,7.32
2018-11-06T03:30:35.472Z,7.28
2018-11-06T03:33:03.837Z,7.30
2018-11-06T03:35:32.113Z,7.28
2018-11-06T03:38:00.417Z,7.23
2018-11-06T03:40:28.670Z,7.25
2018-11-06T03:42:56.967Z,7.24
2018-11-06T03:45:25.235Z,7.22
2018-11-06T03:47:53.551Z,7.23
2018-11-06T03:50:21.834Z,7.26
2018-11-06T03:52:50.107Z,7.25
2018-11-06T03:55:18.364Z,7.22
2018-11-06T03:57:46.649Z,7.16
2018-11-06T04:00:15.538Z,7.09
2018-11-06T04:02:44.436Z,7.08
2018-11-06T04:05:13.102Z,7.04
2018-11-06T04:07:41.380Z,7.07
2018-11-06T04:10:10.800Z,7.13
2018-11-06T04:12:39.787Z,7.14
2018-11-06T04:15:08.559Z,7.14
2018-11-06T04:17:36.874Z,7.16
2018-11-06T04:20:05.793Z,7.17
2018-11-06T04:22:34.045Z,7.09
2018-11-06T04:25:02.327Z,7.00
2018-11-06T04:27:30.663Z,6.95
2018-11-06T04:29:58.955Z,7.00
2018-11-06T04:32:27.247Z,7.04
2018-11-06T04:34:55.655Z,7.08
2018-11-06T04:37:23.919Z,7.06
2018-11-06T04:39:52.163Z,7.02
2018-11-06T04:42:20.466Z,7.01
2018-11-06T04:44:48.723Z,7.02
2018-11-06T04:47:17.019Z,7.01
2018-11-06T04:49:45.312Z,7.00
2018-11-06T04:52:13.588Z,6.95
2018-11-06T04:54:41.886Z,6.99
2018-11-06T04:57:10.191Z,7.08
2018-11-06T04:59:38.483Z,7.11
2018-11-06T05:02:06.786Z,7.13
2018-11-06T05:04:35.083Z,7.15
2018-11-06T05:07:03.551Z,7.16
2018-11-06T05:09:31.805Z,7.15
2018-11-06T05:12:00.066Z,7.13
2018-11-06T05:14:28.363Z,7.10
2018-11-06T05:16:56.669Z,7.06
2018-11-06T05:19:24.936Z,7.01
2018-11-06T05:21:53.231Z,6.99
2018-11-06T05:24:21.526Z,6.97
2018-11-06T05:26:49.797Z,6.97
2018-11-06T05:29:18.077Z,6.96
2018-11-06T05:31:46.360Z,6.92
2018-11-06T05:34:14.628Z,6.91
2018-11-06T05:36:42.924Z,6.90
2018-11-06T05:39:12.260Z,6.88
2018-11-06T05:41:40.442Z,6.86
2018-11-06T05:44:08.828Z,6.93
2018-11-06T05:46:37.010Z,6.97
2018-11-06T05:49:05.377Z,7.06
2018-11-06T05:51:33.672Z,7.11
2018-11-06T05:54:01.947Z,7.15
2018-11-06T05:56:30.203Z,7.22
2018-11-06T05:58:58.508Z,7.28
2018-11-06T06:01:26.791Z,7.28
2018-11-06T06:03:55.123Z,7.31
2018-11-06T06:06:23.416Z,7.35
2018-11-06T06:08:51.712Z,7.38
2018-11-06T06:11:19.999Z,7.41
2018-11-06T06:13:48.260Z,7.42
2018-11-06T06:16:16.538Z,7.43
2018-11-06T06:18:44.807Z,7.45
2018-11-06T06:21:13.201Z,7.47
2018-11-06T06:23:41.508Z,7.43
2018-11-06T06:26:09.775Z,7.38
2018-11-06T06:28:38.133Z,7.36
2018-11-06T06:31:06.415Z,7.39
2018-11-06T06:33:34.712Z,7.35
2018-11-06T06:36:02.991Z,7.32
2018-11-06T06:38:31.268Z,7.31
2018-11-06T06:40:59.613Z,7.31
2018-11-06T06:43:27.807Z,7.26
2018-11-06T06:45:56.131Z,7.20
2018-11-06T06:48:24.421Z,7.22
2018-11-06T06:50:52.738Z,7.25
2018-11-06T06:53:21.012Z,7.31
2018-11-06T06:55:49.358Z,7.39
2018-11-06T06:58:17.679Z,7.45
2018-11-06T07:00:45.960Z,7.51
2018-11-06T07:03:14.265Z,7.57
2018-11-06T07:05:42.559Z,7.69
2018-11-06T07:08:10.837Z,7.74
2018-11-06T07:10:39.121Z,7.76
2018-11-06T07:13:07.529Z,7.77
2018-11-06T07:15:35.757Z,7.75
2018-11-06T07:18:04.041Z,7.79
2018-11-06T07:20:32.347Z,7.86
2018-11-06T07:23:00.644Z,7.93
2018-11-06T07:25:28.962Z,7.98
2018-11-06T07:27:57.255Z,8.01
2018-11-06T07:30:25.542Z,8.07
2018-11-06T07:32:53.799Z,8.15
2018-11-06T07:35:22.517Z,8.21
2018-11-06T07:37:50.735Z,8.24
2018-11-06T07:40:20.150Z,8.28
2018-11-06T07:42:48.402Z,8.36
2018-11-06T07:45:20.031Z,8.41
2018-11-06T07:47:48.322Z,8.46
2018-11-06T07:50:16.658Z,8.48
2018-11-06T07:52:45.194Z,8.49
2018-11-06T07:55:14.805Z,8.51
2018-11-06T07:57:43.080Z,8.58
2018-11-06T08:00:17.421Z,8.66
2018-11-06T08:02:46.711Z,8.73
2018-11-06T08:05:15.482Z,8.82
2018-11-06T08:07:44.591Z,8.88
2018-11-06T08:10:12.872Z,8.94
2018-11-06T08:12:42.977Z,9.02
2018-11-06T08:15:11.916Z,9.10
2018-11-06T08:17:40.876Z,9.19
2018-11-06T08:20:09.180Z,9.27
2018-11-06T08:22:37.935Z,9.36
2018-11-06T08:25:07.032Z,9.43
2018-11-06T08:27:35.367Z,9.53
2018-11-06T08:30:03.807Z,9.60
2018-11-06T08:32:32.531Z,9.65
2018-11-06T08:35:00.404Z,9.73
2018-11-06T08:37:28.697Z,9.81
2018-11-06T08:39:57.042Z,9.90
2018-11-06T08:42:25.305Z,9.98
2018-11-06T08:44:53.639Z,10.08
2018-11-06T08:47:21.956Z,10.16
2018-11-06T08:49:50.248Z,10.24
2018-11-06T08:52:18.564Z,10.27
2018-11-06T08:54:46.943Z,10.35
2018-11-06T08:57:15.221Z,10.47
2018-11-06T08:59:43.668Z,10.58
2018-11-06T09:02:12.089Z,10.66
2018-11-06T09:04:40.435Z,10.72
2018-11-06T09:07:08.855Z,10.80
2018-11-06T09:09:37.139Z,10.83
2018-11-06T09:12:05.690Z,10.87
2018-11-06T09:14:33.959Z,10.89
2018-11-06T09:17:02.294Z,10.90
2018-11-06T09:19:30.574Z,10.91
2018-11-06T09:21:58.888Z,10.93
2018-11-06T09:24:27.184Z,10.95
2018-11-06T09:26:55.618Z,10.99
2018-11-06T09:29:23.939Z,11.03
2018-11-06T09:31:52.284Z,11.11
2018-11-06T09:34:20.591Z,11.19
2018-11-06T09:36:48.873Z,11.27
2018-11-06T09:39:17.176Z,11.34
2018-11-06T09:41:45.449Z,11.42
2018-11-06T09:44:13.780Z,11.51
2018-11-06T09:46:42.068Z,11.60
2018-11-06T09:49:10.331Z,11.70
2018-11-06T09:51:38.800Z,11.78
2018-11-06T09:54:07.089Z,11.87
2018-11-06T09:56:35.424Z,11.93
2018-11-06T09:59:03.774Z,11.98
2018-11-06T10:01:32.053Z,12.03
2018-11-06T10:04:00.344Z,12.05
2018-11-06T10:06:28.777Z,12.08
2018-11-06T10:08:56.974Z,12.12
2018-11-06T10:11:25.520Z,12.17
2018-11-06T10:13:53.788Z,12.22
2018-11-06T10:16:22.073Z,12.28
2018-11-06T10:18:50.346Z,12.33
2018-11-06T10:21:18.671Z,12.37
2018-11-06T10:23:47.025Z,12.45
2018-11-06T10:26:15.322Z,12.48
2018-11-06T10:28:43.618Z,12.54
2018-11-06T10:31:11.891Z,12.60
2018-11-06T10:33:40.193Z,12.65
2018-11-06T10:36:08.503Z,12.69
2018-11-06T10:38:36.844Z,12.75
2018-11-06T10:41:06.077Z,12.78
2018-11-06T10:43:34.354Z,12.86
2018-11-06T10:46:02.619Z,12.94
2018-11-06T10:48:30.902Z,13.04
2018-11-06T10:50:59.215Z,13.14
2018-11-06T10:53:27.497Z,13.21
2018-11-06T10:55:55.822Z,13.30
2018-11-06T10:58:24.156Z,13.30
2018-11-06T11:00:57.832Z,13.34
2018-11-06T11:03:28.487Z,13.40
2018-11-06T11:05:56.919Z,13.46
2018-11-06T11:08:25.215Z,13.50
2018-11-06T11:10:53.529Z,13.56
2018-11-06T11:13:21.864Z,13.61
2018-11-06T11:15:50.119Z,13.69
2018-11-06T11:18:18.407Z,13.78
2018-11-06T11:20:46.693Z,13.85
2018-11-06T11:23:14.963Z,13.84
2018-11-06T11:25:43.250Z,13.87
2018-11-06T11:28:11.572Z,13.91
2018-11-06T11:30:39.856Z,13.93
2018-11-06T11:33:08.140Z,13.95
2018-11-06T11:35:36.452Z,13.98
2018-11-06T11:38:04.738Z,13.98
2018-11-06T11:40:33.108Z,14.02
2018-11-06T11:43:01.539Z,14.04
2018-11-06T11:45:29.816Z,14.11
2018-11-06T11:47:58.107Z,14.16
2018-11-06T11:50:26.400Z,14.25
2018-11-06T11:52:54.707Z,14.36
2018-11-06T11:55:22.995Z,14.47
2018-11-06T11:57:51.406Z,14.52
2018-11-06T12:00:20.804Z,14.58
2018-11-06T12:02:49.249Z,14.60
2018-11-06T12:05:17.534Z,14.66
2018-11-06T12:07:45.849Z,14.73
2018-11-06T12:10:14.314Z,14.82
2018-11-06T12:12:42.607Z,14.88
2018-11-06T12:15:13.337Z,14.96
2018-11-06T12:17:42.438Z,15.01
2018-11-06T12:20:11.377Z,15.03
2018-11-06T12:22:40.191Z,15.09
2018-11-06T12:25:08.909Z,15.13
2018-11-06T12:27:37.362Z,15.18
2018-11-06T12:30:07.633Z,15.25
2018-11-06T12:32:35.989Z,15.28
2018-11-06T12:35:04.289Z,15.31
2018-11-06T12:37:32.537Z,15.30
2018-11-06T12:40:01.414Z,15.35
2018-11-06T12:42:29.710Z,15.41
2018-11-06T12:44:58.381Z,15.45
2018-11-06T12:47:26.696Z,15.48
2018-11-06T12:49:55.211Z,15.48
2018-11-06T12:52:24.460Z,15.51
2018-11-06T12:54:52.914Z,15.57
2018-11-06T12:57:21.267Z,15.66
2018-11-06T12:59:49.624Z,15.65
2018-11-06T13:02:17.910Z,15.67
2018-11-06T13:04:46.267Z,15.66
2018-11-06T13:07:14.556Z,15.66
2018-11-06T13:09:42.915Z,15.66
2018-11-06T13:12:11.199Z,15.72
2018-11-06T13:14:39.488Z,15.71
2018-11-06T13:17:08.486Z,15.76
2018-11-06T13:19:37.191Z,15.75
2018-11-06T13:22:06.616Z,15.78
2018-11-06T13:24:34.883Z,15.80
2018-11-06T13:27:03.193Z,15.78
2018-11-06T13:29:31.600Z,15.77
2018-11-06T13:31:59.878Z,15.78
2018-11-06T13:34:28.163Z,15.76
2018-11-06T13:36:56.496Z,15.77
2018-11-06T13:39:24.791Z,15.77
2018-11-06T13:41:53.139Z,15.80
2018-11-06T13:44:22.075Z,15.80
2018-11-06T13:46:50.125Z,15.81
2018-11-06T13:49:18.472Z,15.83
2018-11-06T13:51:46.787Z,15.84
2018-11-06T13:54:15.074Z,15.87
2018-11-06T13:56:43.366Z,15.90
2018-11-06T13:59:11.834Z,15.91
2018-11-06T14:01:40.139Z,15.92
2018-11-06T14:04:08.490Z,15.94
2018-11-06T14:06:36.859Z,15.93
2018-11-06T14:09:06.947Z,15.94
2018-11-06T14:11:35.283Z,15.95
2018-11-06T14:14:03.551Z,15.95
2018-11-06T14:16:31.866Z,15.95
2018-11-06T14:19:00.150Z,15.95
2018-11-06T14:21:28.474Z,15.94
2018-11-06T14:23:56.749Z,15.93
2018-11-06T14:26:25.103Z,15.92
2018-11-06T14:28:53.574Z,15.91
2018-11-06T14:31:21.864Z,15.86
2018-11-06T14:33:50.158Z,15.84
2018-11-06T14:36:18.458Z,15.82
2018-11-06T14:38:46.710Z,15.81
2018-11-06T14:41:15.009Z,15.81
2018-11-06T14:43:43.313Z,15.77
2018-11-06T14:46:11.636Z,15.73
2018-11-06T14:48:40.019Z,15.69
2018-11-06T14:51:08.185Z,15.65
2018-11-06T14:53:36.504Z,15.59
2018-11-06T14:56:04.888Z,15.54
2018-11-06T14:58:33.090Z,15.48
2018-11-06T15:01:01.396Z,15.45
2018-11-06T15:03:29.661Z,15.42
2018-11-06T15:05:57.988Z,15.39
2018-11-06T15:08:26.280Z,15.34
2018-11-06T15:10:54.599Z,15.29
2018-11-06T15:13:23.548Z,15.26
2018-11-06T15:15:51.828Z,15.19
2018-11-06T15:18:20.202Z,15.14
2018-11-06T15:20:48.534Z,15.07
2018-11-06T15:23:16.802Z,15.01
2018-11-06T15:25:45.090Z,14.96
2018-11-06T15:28:13.379Z,14.92
2018-11-06T15:30:41.670Z,14.86
2018-11-06T15:33:09.983Z,14.81
2018-11-06T15:35:38.346Z,14.76
2018-11-06T15:38:06.636Z,14.71
2018-11-06T15:40:35.032Z,14.62
2018-11-06T15:43:03.348Z,14.52
2018-11-06T15:45:31.672Z,14.37
2018-11-06T15:47:59.967Z,14.23
2018-11-06T15:50:28.249Z,14.09
2018-11-06T15:52:56.559Z,14.00
2018-11-06T15:55:24.831Z,13.88
2018-11-06T15:57:53.164Z,13.78
2018-11-06T16:00:22.939Z,13.69
2018-11-06T16:02:51.400Z,13.61
2018-11-06T16:05:20.059Z,13.54
2018-11-06T16:07:49.164Z,13.51
2018-11-06T16:10:20.853Z,13.44
2018-11-06T16:12:49.185Z,13.33
2018-11-06T16:15:17.567Z,13.21
2018-11-06T16:17:45.866Z,13.19
2018-11-06T16:20:15.678Z,13.17
2018-11-06T16:22:44.270Z,13.13
2018-11-06T16:25:14.089Z,13.11
2018-11-06T16:27:42.807Z,13.11
2018-11-06T16:30:14.432Z,13.11
2018-11-06T16:32:42.872Z,13.11
2018-11-06T16:35:12.699Z,13.12
2018-11-06T16:37:41.330Z,13.11
2018-11-06T16:40:10.178Z,13.09
2018-11-06T16:42:38.784Z,13.08
2018-11-06T16:45:08.669Z,13.06
2018-11-06T16:47:37.067Z,13.05
2018-11-06T16:50:05.983Z,13.00
2018-11-06T16:52:34.340Z,12.97
2018-11-06T16:55:02.657Z,12.94
2018-11-06T16:57:30.968Z,12.91
2018-11-06T16:59:59.875Z,12.90
2018-11-06T17:02:28.216Z,12.88
2018-11-06T17:04:56.504Z,12.86
2018-11-06T17:07:24.791Z,12.83
2018-11-06T17:09:53.063Z,12.79
2018-11-06T17:12:21.360Z,12.78
2018-11-06T17:14:49.619Z,12.76
2018-11-06T17:17:17.989Z,12.73
2018-11-06T17:19:46.187Z,12.70
2018-11-06T17:22:14.467Z,12.66
2018-11-06T17:24:42.779Z,12.65
2018-11-06T17:27:11.149Z,12.64
2018-11-06T17:29:39.458Z,12.64
2018-11-06T17:32:07.763Z,12.63
2018-11-06T17:34:36.062Z,12.63
2018-11-06T17:37:04.719Z,12.58
2018-11-06T17:39:33.068Z,12.55
2018-11-06T17:42:01.346Z,12.52
2018-11-06T17:44:29.886Z,12.50
2018-11-06T17:46:58.241Z,12.50
2018-11-06T17:49:26.531Z,12.50
2018-11-06T17:51:54.791Z,12.49
2018-11-06T17:54:23.054Z,12.50
2018-11-06T17:56:51.410Z,12.48
2018-11-06T17:59:19.686Z,12.49
2018-11-06T18:01:47.928Z,12.49
2018-11-06T18:04:16.365Z,12.46
2018-11-06T18:06:44.540Z,12.42
2018-11-06T18:09:13.550Z,12.40
2018-11-06T18:11:41.868Z,12.38
2018-11-06T18:14:10.120Z,12.35
2018-11-06T18:16:38.376Z,12.33
2018-11-06T18:19:06.656Z,12.32
2018-11-06T18:21:35.009Z,12.32
2018-11-06T18:24:03.335Z,12.32
2018-11-06T18:26:31.610Z,12.31
2018-11-06T18:28:59.887Z,12.26
2018-11-06T18:31:28.233Z,12.12
2018-11-06T18:33:56.568Z,12.06
2018-11-06T18:36:24.858Z,11.97
2018-11-06T18:38:53.122Z,11.92
2018-11-06T18:41:21.472Z,11.84
2018-11-06T18:43:49.830Z,11.76
2018-11-06T18:46:18.335Z,11.67
2018-11-06T18:48:46.620Z,11.56
2018-11-06T18:51:14.995Z,11.47
2018-11-06T18:53:43.319Z,11.38
2018-11-06T18:56:11.629Z,11.28
2018-11-06T18:58:39.908Z,11.22
2018-11-06T19:01:08.211Z,11.18
2018-11-06T19:03:36.484Z,11.11
2018-11-06T19:06:05.949Z,11.07
2018-11-06T19:08:34.227Z,11.05
2018-11-06T19:11:02.503Z,11.08
2018-11-06T19:13:30.815Z,11.11
2018-11-06T19:15:59.111Z,11.10
2018-11-06T19:18:27.415Z,11.08
2018-11-06T19:20:55.747Z,11.05
2018-11-06T19:23:24.071Z,11.00
2018-11-06T19:25:52.379Z,10.99
2018-11-06T19:28:20.670Z,10.98
2018-11-06T19:30:48.976Z,10.98
2018-11-06T19:33:17.218Z,10.97
2018-11-06T19:35:45.508Z,10.93
2018-11-06T19:38:13.801Z,10.90
2018-11-06T19:40:42.211Z,10.86
2018-11-06T19:43:10.389Z,10.78
2018-11-06T19:45:38.767Z,10.72
2018-11-06T19:48:07.123Z,10.65
2018-11-06T19:50:35.407Z,10.59
2018-11-06T19:53:03.742Z,10.54
2018-11-06T19:55:32.053Z,10.50
2018-11-06T19:58:00.421Z,10.48
2018-11-06T20:00:28.823Z,10.46
2018-11-06T20:02:57.214Z,10.40
2018-11-06T20:05:25.625Z,10.37
2018-11-06T20:07:53.900Z,10.33
2018-11-06T20:10:23.597Z,10.27
2018-11-06T20:12:52.937Z,10.20
2018-11-06T20:15:21.320Z,10.13
2018-11-06T20:17:49.636Z,10.09
2018-11-06T20:20:26.159Z,10.06
2018-11-06T20:22:54.477Z,10.03
2018-11-06T20:25:22.815Z,10.00
2018-11-06T20:27:51.163Z,9.98
2018-11-06T20:30:20.872Z,9.94
2018-11-06T20:32:49.200Z,9.91
2018-11-06T20:35:17.839Z,9.86
2018-11-06T20:37:46.144Z,9.85
2018-11-06T20:40:18.404Z,9.83
2018-11-06T20:42:47.088Z,9.85
2018-11-06T20:45:16.385Z,9.88
2018-11-06T20:47:44.977Z,9.91
2018-11-06T20:50:16.682Z,9.92
2018-11-06T20:52:45.091Z,9.90
2018-11-06T20:55:14.394Z,9.89
2018-11-06T20:57:42.688Z,9.89
2018-11-06T21:00:18.493Z,9.88
2018-11-06T21:02:47.160Z,9.89
2018-11-06T21:05:16.289Z,9.96
2018-11-06T21:07:45.405Z,9.97
2018-11-06T21:10:14.371Z,9.97
2018-11-06T21:12:42.772Z,9.96
2018-11-06T21:15:11.746Z,9.95
2018-11-06T21:17:40.198Z,9.97
2018-11-06T21:20:10.047Z,9.98
2018-11-06T21:22:38.466Z,9.98
2018-11-06T21:25:07.522Z,9.99
2018-11-06T21:27:35.735Z,9.97
2018-11-06T21:30:04.155Z,9.94
2018-11-06T21:32:32.451Z,9.88
2018-11-06T21:35:00.745Z,9.84
2018-11-06T21:37:29.013Z,9.80
2018-11-06T21:39:57.283Z,9.76
2018-11-06T21:42:25.552Z,9.71
2018-11-06T21:44:53.870Z,9.68
2018-11-06T21:47:22.144Z,9.64
2018-11-06T21:49:50.427Z,9.61
2018-11-06T21:52:18.823Z,9.58
2018-11-06T21:54:47.348Z,9.59
2018-11-06T21:57:15.600Z,9.58
2018-11-06T21:59:43.926Z,9.59
2018-11-06T22:02:12.214Z,9.60
2018-11-06T22:04:40.509Z,9.63
2018-11-06T22:07:08.779Z,9.64
2018-11-06T22:09:37.050Z,9.63
2018-11-06T22:12:05.711Z,9.60
2018-11-06T22:15:36.991Z,9.58
2018-11-06T22:18:05.280Z,9.59
2018-11-06T22:20:33.609Z,9.60
2018-11-06T22:23:01.916Z,9.60
2018-11-06T22:25:30.220Z,9.61
2018-11-06T22:27:58.520Z,9.60
2018-11-06T22:30:26.810Z,9.57
2018-11-06T22:32:55.109Z,9.57
2018-11-06T22:35:23.404Z,9.55
2018-11-06T22:37:51.768Z,9.57
2018-11-06T22:40:20.051Z,9.59
2018-11-06T22:42:48.327Z,9.57
2018-11-06T22:45:17.489Z,9.55
2018-11-06T22:47:45.748Z,9.52
2018-11-06T22:50:16.079Z,9.49
2018-11-06T22:52:44.870Z,9.47
2018-11-06T22:55:13.256Z,9.48
2018-11-06T22:57:41.617Z,9.52
2018-11-06T23:00:12.422Z,9.53
2018-11-06T23:02:41.047Z,9.57
2018-11-06T23:05:09.389Z,9.55
2018-11-06T23:07:42.854Z,9.53
2018-11-06T23:10:11.512Z,9.52
2018-11-06T23:12:39.955Z,9.49
2018-11-06T23:15:08.283Z,9.43
2018-11-06T23:17:36.575Z,9.38
2018-11-06T23:20:05.755Z,9.40
2018-11-06T23:22:34.207Z,9.39
2018-11-06T23:25:02.608Z,9.37
2018-11-06T23:27:30.791Z,9.38
2018-11-06T23:29:59.094Z,9.36
2018-11-06T23:32:27.437Z,9.34
2018-11-06T23:34:55.813Z,9.29
2018-11-06T23:37:24.115Z,9.29
2018-11-06T23:39:52.400Z,9.30
2018-11-06T23:42:20.687Z,9.32
2018-11-06T23:44:48.975Z,9.31
2018-11-06T23:47:17.290Z,9.28
2018-11-06T23:49:45.581Z,9.27
2018-11-06T23:52:13.879Z,9.26
2018-11-06T23:54:42.170Z,9.24
2018-11-06T23:57:10.447Z,9.18
2018-11-06T23:59:38.724Z,9.15
